Airfield :
LOGIN :

Register | Disclaimer

   EN    FR    IT 

 










Legend :    VFR   Marginal VFR   IFR   Intensive IFR   Very Intensive IFR
Visi :
Ceiling :
>= 8 km
>= 3000ft
5 to 8 km
1000 to 3000 ft
1500m to 5 km
500 to 1000 ft
800 to 1500m
200 to 500 ft
< 800m
< 200 ft
Symbols :   Thunderstorms  Fog  Heavy snow  Heavy precipitations  Wind > 20 kt
SIGMETs :     Misc.  Thunderstorms  Icing  Turbulence  Mountain Waves  Volcanic Ashes






- Airport Elevation : 12 ft
- IATA code : CQF


LFAC - Calais

CURRENT METAR :
  • 131430Z AUTO 31004KT 280V350 9999 FEW024 SCT066 BKN140 26/20 Q1011

EXPIRED METARs :
  • 131400Z AUTO VRB02KT 9999 VCTS FEW028/// BKN037/// BKN056/// ///CB 25/20 Q1012
  • 131330Z AUTO 30007KT 8000 TS ///CB 24/19 Q1012
  • 131300Z AUTO 29007KT 7000 ///CB 25/20 Q1012
  • 131230Z AUTO 32007KT 6000 NSC 25/20 Q1012
  • 131200Z AUTO 31008KT 8000 NSC 25/19 Q1012

TAF N/A
ATIS : +33 3 21 00 11 14



MET'MAP, your aeronautical weather chart ! - Copyright ORBIFLY December 2007 - Disclaimer

ORBIFLY MET'MAP TEAM :

Programming & Development : Alexandra Zaïnal
Concept & original design : Baudouin d'Aumeries
Assistance for programming : Marc-Olivier Méhu
Technical & hardware support : Manuel Goepfert

Contact : metmap@orbifly.com




SOURCES & CREDITS :

   NOAA